sensor_id;sensor_type;location;lat;lon;timestamp;pressure;altitude;pressure_sealevel;temperature;humidity
17072;BME280;7731;50.720;6.912;2023-06-14T00:01:05;99763.28;;;17.25;64.68
17072;BME280;7731;50.720;6.912;2023-06-14T00:03:39;99765.31;;;17.01;65.90
17072;BME280;7731;50.720;6.912;2023-06-14T00:06:10;99762.34;;;17.26;65.74
17072;BME280;7731;50.720;6.912;2023-06-14T00:08:45;99758.34;;;17.22;66.04
17072;BME280;7731;50.720;6.912;2023-06-14T00:11:16;99757.59;;;16.89;68.97
17072;BME280;7731;50.720;6.912;2023-06-14T00:13:48;99762.66;;;16.91;69.38
17072;BME280;7731;50.720;6.912;2023-06-14T00:16:22;99769.47;;;16.92;69.52
17072;BME280;7731;50.720;6.912;2023-06-14T00:18:55;99766.19;;;16.78;70.12
17072;BME280;7731;50.720;6.912;2023-06-14T00:21:25;99761.34;;;16.85;69.86
17072;BME280;7731;50.720;6.912;2023-06-14T00:23:58;99771.88;;;16.51;72.47
17072;BME280;7731;50.720;6.912;2023-06-14T00:26:29;99770.94;;;16.41;74.06
17072;BME280;7731;50.720;6.912;2023-06-14T00:29:02;99778.44;;;16.55;73.25
17072;BME280;7731;50.720;6.912;2023-06-14T00:31:32;99790.66;;;16.65;72.21
17072;BME280;7731;50.720;6.912;2023-06-14T00:34:05;99781.25;;;16.64;72.77
17072;BME280;7731;50.720;6.912;2023-06-14T00:36:36;99795.13;;;16.30;75.75
17072;BME280;7731;50.720;6.912;2023-06-14T00:39:07;99794.53;;;16.38;75.79
17072;BME280;7731;50.720;6.912;2023-06-14T00:41:37;99795.44;;;16.48;74.89
17072;BME280;7731;50.720;6.912;2023-06-14T00:44:07;99797.19;;;16.59;74.40
17072;BME280;7731;50.720;6.912;2023-06-14T00:46:38;99793.06;;;16.56;75.76
17072;BME280;7731;50.720;6.912;2023-06-14T00:49:12;99796.75;;;16.42;77.07
17072;BME280;7731;50.720;6.912;2023-06-14T00:51:51;99791.50;;;16.33;77.30
17072;BME280;7731;50.720;6.912;2023-06-14T00:54:21;99795.00;;;16.32;79.25
17072;BME280;7731;50.720;6.912;2023-06-14T00:56:51;99803.72;;;16.31;79.16
17072;BME280;7731;50.720;6.912;2023-06-14T00:59:22;99792.63;;;16.51;77.81
17072;BME280;7731;50.720;6.912;2023-06-14T01:01:52;99798.53;;;16.42;78.37
17072;BME280;7731;50.720;6.912;2023-06-14T01:04:25;99793.34;;;16.42;78.14
17072;BME280;7731;50.720;6.912;2023-06-14T01:07:03;99798.53;;;16.42;77.75
17072;BME280;7731;50.720;6.912;2023-06-14T01:10:02;99794.72;;;16.46;77.12
17072;BME280;7731;50.720;6.912;2023-06-14T01:12:54;99789.22;;;16.39;78.02
17072;BME280;7731;50.720;6.912;2023-06-14T01:15:28;99790.06;;;16.29;79.07
17072;BME280;7731;50.720;6.912;2023-06-14T01:17:59;99789.72;;;16.33;78.77
17072;BME280;7731;50.720;6.912;2023-06-14T01:20:35;99794.19;;;16.20;79.06
17072;BME280;7731;50.720;6.912;2023-06-14T01:23:09;99797.28;;;15.68;84.54
17072;BME280;7731;50.720;6.912;2023-06-14T01:25:39;99805.41;;;15.64;86.25
17072;BME280;7731;50.720;6.912;2023-06-14T01:28:12;99808.69;;;15.66;85.72
17072;BME280;7731;50.720;6.912;2023-06-14T01:34:30;99799.22;;;15.31;89.03
17072;BME280;7731;50.720;6.912;2023-06-14T01:37:02;99797.75;;;15.62;86.91
17072;BME280;7731;50.720;6.912;2023-06-14T01:39:39;99799.06;;;15.79;84.29
17072;BME280;7731;50.720;6.912;2023-06-14T01:42:13;99807.03;;;15.42;89.05
17072;BME280;7731;50.720;6.912;2023-06-14T01:44:59;99806.09;;;15.54;87.84
17072;BME280;7731;50.720;6.912;2023-06-14T01:47:31;99797.59;;;15.30;89.35
17072;BME280;7731;50.720;6.912;2023-06-14T01:50:06;99806.78;;;15.45;88.65
17072;BME280;7731;50.720;6.912;2023-06-14T01:52:37;99808.88;;;15.40;89.84
17072;BME280;7731;50.720;6.912;2023-06-14T01:55:15;99815.25;;;15.36;91.16
17072;BME280;7731;50.720;6.912;2023-06-14T01:57:49;99808.56;;;15.56;87.31
17072;BME280;7731;50.720;6.912;2023-06-14T02:00:20;99805.63;;;15.61;88.35
17072;BME280;7731;50.720;6.912;2023-06-14T02:02:50;99811.25;;;15.43;88.57
17072;BME280;7731;50.720;6.912;2023-06-14T02:05:24;99813.81;;;15.43;89.17
17072;BME280;7731;50.720;6.912;2023-06-14T02:07:54;99806.16;;;14.84;95.26
17072;BME280;7731;50.720;6.912;2023-06-14T02:10:27;99811.59;;;14.92;96.70
17072;BME280;7731;50.720;6.912;2023-06-14T02:12:58;99807.38;;;15.02;94.37
17072;BME280;7731;50.720;6.912;2023-06-14T02:15:28;99816.06;;;14.90;96.94
17072;BME280;7731;50.720;6.912;2023-06-14T02:18:02;99806.97;;;15.20;92.46
17072;BME280;7731;50.720;6.912;2023-06-14T02:24:23;99810.53;;;15.41;89.98
17072;BME280;7731;50.720;6.912;2023-06-14T02:26:59;99812.28;;;14.94;92.06
17072;BME280;7731;50.720;6.912;2023-06-14T02:29:30;99814.84;;;14.82;93.52
17072;BME280;7731;50.720;6.912;2023-06-14T02:32:01;99820.72;;;14.47;95.74
17072;BME280;7731;50.720;6.912;2023-06-14T02:34:32;99818.25;;;14.46;95.14
17072;BME280;7731;50.720;6.912;2023-06-14T02:37:02;99817.75;;;14.78;94.11
17072;BME280;7731;50.720;6.912;2023-06-14T02:39:32;99824.84;;;14.87;90.38
17072;BME280;7731;50.720;6.912;2023-06-14T02:42:09;99822.97;;;14.65;93.65
17072;BME280;7731;50.720;6.912;2023-06-14T02:44:40;99820.06;;;14.57;95.28
17072;BME280;7731;50.720;6.912;2023-06-14T02:47:10;99824.72;;;14.89;91.07
17072;BME280;7731;50.720;6.912;2023-06-14T02:49:40;99821.34;;;14.64;93.20
17072;BME280;7731;50.720;6.912;2023-06-14T02:52:14;99823.19;;;14.62;92.97
17072;BME280;7731;50.720;6.912;2023-06-14T02:54:44;99823.84;;;14.40;94.95
17072;BME280;7731;50.720;6.912;2023-06-14T02:57:17;99830.03;;;14.50;93.79
17072;BME280;7731;50.720;6.912;2023-06-14T02:59:47;99827.09;;;14.68;93.10
17072;BME280;7731;50.720;6.912;2023-06-14T03:05:52;99826.72;;;14.61;92.75
17072;BME280;7731;50.720;6.912;2023-06-14T03:08:22;99831.06;;;14.47;94.41
17072;BME280;7731;50.720;6.912;2023-06-14T03:10:54;99836.88;;;14.38;94.46
17072;BME280;7731;50.720;6.912;2023-06-14T03:14:07;99843.16;;;14.10;98.49
17072;BME280;7731;50.720;6.912;2023-06-14T03:16:38;99847.66;;;14.32;97.03
17072;BME280;7731;50.720;6.912;2023-06-14T03:19:09;99846.78;;;14.44;94.85
17072;BME280;7731;50.720;6.912;2023-06-14T03:25:12;99848.81;;;14.65;93.06
17072;BME280;7731;50.720;6.912;2023-06-14T03:27:42;99843.78;;;14.51;93.97
17072;BME280;7731;50.720;6.912;2023-06-14T03:30:18;99850.72;;;14.37;96.30
17072;BME280;7731;50.720;6.912;2023-06-14T03:32:48;99849.84;;;14.13;100.00
17072;BME280;7731;50.720;6.912;2023-06-14T03:35:19;99849.56;;;14.04;100.00
17072;BME280;7731;50.720;6.912;2023-06-14T03:37:50;99849.44;;;14.19;100.00
17072;BME280;7731;50.720;6.912;2023-06-14T03:40:21;99852.34;;;14.27;97.84
17072;BME280;7731;50.720;6.912;2023-06-14T03:42:54;99853.69;;;14.20;96.35
17072;BME280;7731;50.720;6.912;2023-06-14T03:45:27;99849.25;;;14.09;96.84
17072;BME280;7731;50.720;6.912;2023-06-14T03:47:57;99856.19;;;14.08;98.59
17072;BME280;7731;50.720;6.912;2023-06-14T03:50:28;99859.88;;;14.30;99.61
17072;BME280;7731;50.720;6.912;2023-06-14T03:53:02;99862.94;;;14.35;98.19
17072;BME280;7731;50.720;6.912;2023-06-14T03:55:35;99865.88;;;14.18;100.00
17072;BME280;7731;50.720;6.912;2023-06-14T03:58:23;99873.72;;;14.29;100.00
17072;BME280;7731;50.720;6.912;2023-06-14T04:00:56;99858.44;;;14.00;100.00
17072;BME280;7731;50.720;6.912;2023-06-14T04:03:26;99862.69;;;13.75;100.00
17072;BME280;7731;50.720;6.912;2023-06-14T04:05:57;99871.28;;;13.89;100.00
17072;BME280;7731;50.720;6.912;2023-06-14T04:12:00;99878.66;;;14.32;100.00
17072;BME280;7731;50.720;6.912;2023-06-14T04:14:30;99886.00;;;14.38;100.00
17072;BME280;7731;50.720;6.912;2023-06-14T04:17:05;99878.00;;;14.67;97.84
17072;BME280;7731;50.720;6.912;2023-06-14T04:19:38;99880.88;;;14.50;97.77
17072;BME280;7731;50.720;6.912;2023-06-14T04:22:09;99884.13;;;14.40;95.28
17072;BME280;7731;50.720;6.912;2023-06-14T04:24:39;99883.63;;;14.35;97.18
17072;BME280;7731;50.720;6.912;2023-06-14T04:27:16;99890.25;;;14.39;94.94
17072;BME280;7731;50.720;6.912;2023-06-14T04:29:48;99892.69;;;14.91;89.50
17072;BME280;7731;50.720;6.912;2023-06-14T04:32:23;99899.63;;;15.14;87.00
17072;BME280;7731;50.720;6.912;2023-06-14T04:34:57;99892.47;;;16.34;81.23
17072;BME280;7731;50.720;6.912;2023-06-14T04:37:29;99903.88;;;16.09;77.28
17072;BME280;7731;50.720;6.912;2023-06-14T04:40:10;99889.16;;;16.32;75.63
17072;BME280;7731;50.720;6.912;2023-06-14T04:42:47;99899.63;;;15.85;77.53
17072;BME280;7731;50.720;6.912;2023-06-14T04:45:21;99899.78;;;15.71;79.88
17072;BME280;7731;50.720;6.912;2023-06-14T04:47:54;99901.78;;;15.21;81.40
17072;BME280;7731;50.720;6.912;2023-06-14T04:50:26;99899.47;;;14.80;86.59
17072;BME280;7731;50.720;6.912;2023-06-14T04:52:56;99907.38;;;14.66;87.07
17072;BME280;7731;50.720;6.912;2023-06-14T04:55:27;99910.69;;;14.92;85.68
17072;BME280;7731;50.720;6.912;2023-06-14T04:58:00;99907.88;;;14.95;85.27
17072;BME280;7731;50.720;6.912;2023-06-14T05:00:33;99903.78;;;14.93;85.42
17072;BME280;7731;50.720;6.912;2023-06-14T05:03:06;99904.53;;;15.06;85.54
17072;BME280;7731;50.720;6.912;2023-06-14T05:05:36;99907.44;;;15.02;86.94
17072;BME280;7731;50.720;6.912;2023-06-14T05:08:09;99919.69;;;15.24;86.53
17072;BME280;7731;50.720;6.912;2023-06-14T05:10:45;99922.16;;;16.19;80.92
17072;BME280;7731;50.720;6.912;2023-06-14T05:13:15;99917.00;;;17.08;75.00
17072;BME280;7731;50.720;6.912;2023-06-14T05:15:45;99916.78;;;18.57;67.33
17072;BME280;7731;50.720;6.912;2023-06-14T05:18:20;99909.16;;;19.83;60.46
17072;BME280;7731;50.720;6.912;2023-06-14T05:20:52;99911.63;;;19.94;57.62
17072;BME280;7731;50.720;6.912;2023-06-14T05:23:28;99900.69;;;21.28;52.64
17072;BME280;7731;50.720;6.912;2023-06-14T05:25:58;99906.88;;;21.63;50.20
17072;BME280;7731;50.720;6.912;2023-06-14T05:28:31;99907.25;;;22.37;48.29
17072;BME280;7731;50.720;6.912;2023-06-14T05:31:03;99915.00;;;21.60;48.81
17072;BME280;7731;50.720;6.912;2023-06-14T05:33:39;99909.00;;;22.71;45.25
17072;BME280;7731;50.720;6.912;2023-06-14T05:36:11;99913.19;;;24.28;40.22
17072;BME280;7731;50.720;6.912;2023-06-14T05:38:45;99917.16;;;24.87;37.72
17072;BME280;7731;50.720;6.912;2023-06-14T05:41:18;99903.34;;;29.17;30.39
17072;BME280;7731;50.720;6.912;2023-06-14T05:43:52;99906.91;;;26.72;32.60
17072;BME280;7731;50.720;6.912;2023-06-14T05:46:35;99909.09;;;26.17;33.66
17072;BME280;7731;50.720;6.912;2023-06-14T05:49:09;99900.91;;;29.42;28.92
17072;BME280;7731;50.720;6.912;2023-06-14T05:51:40;99910.69;;;27.91;31.50
17072;BME280;7731;50.720;6.912;2023-06-14T05:54:10;99917.50;;;28.62;30.79
17072;BME280;7731;50.720;6.912;2023-06-14T05:56:40;99905.31;;;31.11;26.92
17072;BME280;7731;50.720;6.912;2023-06-14T05:59:13;99913.53;;;29.40;28.49
17072;BME280;7731;50.720;6.912;2023-06-14T06:01:46;99910.25;;;31.95;25.01
17072;BME280;7731;50.720;6.912;2023-06-14T06:04:22;99917.72;;;32.84;23.35
17072;BME280;7731;50.720;6.912;2023-06-14T06:06:56;99915.03;;;31.67;24.21
17072;BME280;7731;50.720;6.912;2023-06-14T06:09:27;99920.81;;;32.50;23.56
17072;BME280;7731;50.720;6.912;2023-06-14T06:11:57;99933.97;;;32.45;23.26
17072;BME280;7731;50.720;6.912;2023-06-14T06:14:28;99926.66;;;32.10;23.63
17072;BME280;7731;50.720;6.912;2023-06-14T06:16:58;99931.91;;;30.72;24.81
17072;BME280;7731;50.720;6.912;2023-06-14T06:19:38;99932.50;;;30.29;24.77
17072;BME280;7731;50.720;6.912;2023-06-14T06:22:11;99940.91;;;32.46;23.16
17072;BME280;7731;50.720;6.912;2023-06-14T06:24:41;99929.66;;;31.95;22.64
17072;BME280;7731;50.720;6.912;2023-06-14T06:27:20;99938.09;;;30.59;24.76
17072;BME280;7731;50.720;6.912;2023-06-14T06:29:51;99943.44;;;29.47;26.26
17072;BME280;7731;50.720;6.912;2023-06-14T06:32:21;99943.59;;;29.99;24.94
17072;BME280;7731;50.720;6.912;2023-06-14T06:34:54;99941.91;;;31.52;24.17
17072;BME280;7731;50.720;6.912;2023-06-14T06:37:27;99938.69;;;33.04;21.57
17072;BME280;7731;50.720;6.912;2023-06-14T06:40:00;99942.31;;;33.69;20.87
17072;BME280;7731;50.720;6.912;2023-06-14T06:42:30;99947.44;;;30.62;24.91
17072;BME280;7731;50.720;6.912;2023-06-14T06:45:01;99950.44;;;30.27;24.46
17072;BME280;7731;50.720;6.912;2023-06-14T06:47:32;99956.97;;;30.76;24.84
17072;BME280;7731;50.720;6.912;2023-06-14T06:50:14;99955.81;;;31.55;23.53
17072;BME280;7731;50.720;6.912;2023-06-14T06:52:44;99963.16;;;30.05;24.88
17072;BME280;7731;50.720;6.912;2023-06-14T06:55:21;99957.19;;;30.68;24.23
17072;BME280;7731;50.720;6.912;2023-06-14T06:57:56;99959.56;;;33.31;21.03
17072;BME280;7731;50.720;6.912;2023-06-14T07:00:28;99951.31;;;34.03;20.83
17072;BME280;7731;50.720;6.912;2023-06-14T07:02:58;99963.47;;;30.35;23.89
17072;BME280;7731;50.720;6.912;2023-06-14T07:05:34;99959.13;;;29.55;25.02
17072;BME280;7731;50.720;6.912;2023-06-14T07:08:07;99954.28;;;33.78;20.54
17072;BME280;7731;50.720;6.912;2023-06-14T07:10:37;99952.97;;;33.92;20.49
17072;BME280;7731;50.720;6.912;2023-06-14T07:13:07;99962.25;;;33.31;20.97
17072;BME280;7731;50.720;6.912;2023-06-14T07:15:41;99970.78;;;32.11;21.36
17072;BME280;7731;50.720;6.912;2023-06-14T07:18:11;99967.44;;;31.54;22.63
17072;BME280;7731;50.720;6.912;2023-06-14T07:20:46;99968.69;;;31.76;22.32
17072;BME280;7731;50.720;6.912;2023-06-14T07:23:17;99969.47;;;34.18;19.35
17072;BME280;7731;50.720;6.912;2023-06-14T07:25:50;99966.97;;;34.11;19.52
17072;BME280;7731;50.720;6.912;2023-06-14T07:28:22;99970.47;;;33.53;20.34
17072;BME280;7731;50.720;6.912;2023-06-14T07:31:05;99973.53;;;33.14;20.92
17072;BME280;7731;50.720;6.912;2023-06-14T07:33:39;99963.88;;;33.32;20.06
17072;BME280;7731;50.720;6.912;2023-06-14T07:36:12;99969.41;;;34.70;18.93
17072;BME280;7731;50.720;6.912;2023-06-14T07:38:46;99976.06;;;33.87;19.83
17072;BME280;7731;50.720;6.912;2023-06-14T07:41:16;99968.88;;;35.31;18.00
17072;BME280;7731;50.720;6.912;2023-06-14T07:43:47;99970.63;;;34.22;18.80
17072;BME280;7731;50.720;6.912;2023-06-14T07:46:18;99981.41;;;32.79;20.04
17072;BME280;7731;50.720;6.912;2023-06-14T07:48:50;99977.56;;;30.81;22.36
17072;BME280;7731;50.720;6.912;2023-06-14T07:51:27;99973.31;;;34.22;19.29
17072;BME280;7731;50.720;6.912;2023-06-14T07:54:00;99971.31;;;33.11;20.18
17072;BME280;7731;50.720;6.912;2023-06-14T07:56:31;99972.28;;;34.52;18.39
17072;BME280;7731;50.720;6.912;2023-06-14T07:59:13;99973.38;;;35.48;17.65
17072;BME280;7731;50.720;6.912;2023-06-14T08:01:43;99977.66;;;31.50;21.22
17072;BME280;7731;50.720;6.912;2023-06-14T08:04:18;99971.13;;;34.48;18.67
17072;BME280;7731;50.720;6.912;2023-06-14T08:06:51;99983.34;;;33.79;19.98
17072;BME280;7731;50.720;6.912;2023-06-14T08:09:22;99975.34;;;32.41;21.27
17072;BME280;7731;50.720;6.912;2023-06-14T08:11:52;99978.00;;;33.02;20.72
17072;BME280;7731;50.720;6.912;2023-06-14T08:14:22;99966.97;;;34.11;18.98
17072;BME280;7731;50.720;6.912;2023-06-14T08:16:53;99979.34;;;31.95;21.02
17072;BME280;7731;50.720;6.912;2023-06-14T08:19:23;99969.81;;;34.33;18.54
17072;BME280;7731;50.720;6.912;2023-06-14T08:21:58;99976.81;;;32.86;19.59
17072;BME280;7731;50.720;6.912;2023-06-14T08:24:29;99971.28;;;34.41;17.88
17072;BME280;7731;50.720;6.912;2023-06-14T08:27:01;99979.63;;;34.74;17.90
17072;BME280;7731;50.720;6.912;2023-06-14T08:30:11;99984.13;;;33.21;18.98
17072;BME280;7731;50.720;6.912;2023-06-14T08:32:45;99975.44;;;33.49;18.67
17072;BME280;7731;50.720;6.912;2023-06-14T08:35:31;99970.75;;;34.27;17.67
17072;BME280;7731;50.720;6.912;2023-06-14T08:38:10;99983.59;;;33.12;18.63
17072;BME280;7731;50.720;6.912;2023-06-14T08:40:45;99974.16;;;32.00;20.18
17072;BME280;7731;50.720;6.912;2023-06-14T08:43:18;99976.59;;;34.53;17.82
17072;BME280;7731;50.720;6.912;2023-06-14T08:45:57;99978.56;;;33.22;19.34
17072;BME280;7731;50.720;6.912;2023-06-14T08:48:29;99985.03;;;32.84;19.54
17072;BME280;7731;50.720;6.912;2023-06-14T08:51:05;99974.28;;;33.69;18.10
17072;BME280;7731;50.720;6.912;2023-06-14T08:57:06;99963.44;;;34.23;17.71
17072;BME280;7731;50.720;6.912;2023-06-14T08:59:46;99967.69;;;30.88;21.26
17072;BME280;7731;50.720;6.912;2023-06-14T09:02:22;99968.94;;;35.36;17.35
17072;BME280;7731;50.720;6.912;2023-06-14T09:04:55;99967.88;;;34.86;16.63
17072;BME280;7731;50.720;6.912;2023-06-14T09:07:28;99967.84;;;35.71;16.09
17072;BME280;7731;50.720;6.912;2023-06-14T09:10:10;99968.94;;;32.79;18.78
17072;BME280;7731;50.720;6.912;2023-06-14T09:12:43;99962.38;;;35.10;16.56
17072;BME280;7731;50.720;6.912;2023-06-14T09:15:14;99967.41;;;35.07;16.43
17072;BME280;7731;50.720;6.912;2023-06-14T09:17:45;99963.66;;;36.20;15.96
17072;BME280;7731;50.720;6.912;2023-06-14T09:20:15;99966.28;;;35.36;16.70
17072;BME280;7731;50.720;6.912;2023-06-14T09:22:47;99972.34;;;32.98;19.05
17072;BME280;7731;50.720;6.912;2023-06-14T09:50:40;99973.97;;;33.11;17.94
17072;BME280;7731;50.720;6.912;2023-06-14T09:53:14;99978.19;;;34.25;16.90
17072;BME280;7731;50.720;6.912;2023-06-14T10:02:40;99965.34;;;33.98;17.12
17072;BME280;7731;50.720;6.912;2023-06-14T10:05:19;99977.25;;;33.13;17.36
17072;BME280;7731;50.720;6.912;2023-06-14T10:11:26;99965.75;;;35.56;15.64
17072;BME280;7731;50.720;6.912;2023-06-14T10:14:01;99979.88;;;33.79;16.92
17072;BME280;7731;50.720;6.912;2023-06-14T10:16:37;99964.97;;;34.88;16.30
17072;BME280;7731;50.720;6.912;2023-06-14T10:23:06;99975.22;;;32.97;18.13
17072;BME280;7731;50.720;6.912;2023-06-14T10:25:38;99966.19;;;33.40;17.21
17072;BME280;7731;50.720;6.912;2023-06-14T10:28:19;99965.44;;;33.09;17.40
17072;BME280;7731;50.720;6.912;2023-06-14T10:31:05;99966.31;;;30.34;19.92
17072;BME280;7731;50.720;6.912;2023-06-14T10:33:50;99960.75;;;32.62;18.51
17072;BME280;7731;50.720;6.912;2023-06-14T10:37:00;99964.88;;;33.19;17.76
17072;BME280;7731;50.720;6.912;2023-06-14T10:39:40;99957.88;;;33.84;17.40
17072;BME280;7731;50.720;6.912;2023-06-14T10:42:18;99957.53;;;35.07;16.15
17072;BME280;7731;50.720;6.912;2023-06-14T10:44:56;99957.69;;;34.83;16.71
17072;BME280;7731;50.720;6.912;2023-06-14T10:47:31;99965.03;;;33.59;17.40
17072;BME280;7731;50.720;6.912;2023-06-14T10:50:07;99963.53;;;34.40;16.22
17072;BME280;7731;50.720;6.912;2023-06-14T10:52:41;99960.78;;;32.13;18.22
17072;BME280;7731;50.720;6.912;2023-06-14T10:55:14;99964.03;;;33.18;17.62
17072;BME280;7731;50.720;6.912;2023-06-14T10:57:48;99957.41;;;31.62;19.02
17072;BME280;7731;50.720;6.912;2023-06-14T11:00:27;99969.97;;;32.78;18.99
17072;BME280;7731;50.720;6.912;2023-06-14T11:03:43;99963.41;;;30.49;20.72
17072;BME280;7731;50.720;6.912;2023-06-14T11:06:17;99956.22;;;31.01;21.05
17072;BME280;7731;50.720;6.912;2023-06-14T11:12:12;99950.91;;;31.51;19.72
17072;BME280;7731;50.720;6.912;2023-06-14T11:14:46;99964.63;;;30.59;20.98
17072;BME280;7731;50.720;6.912;2023-06-14T11:17:22;99963.25;;;30.30;21.61
17072;BME280;7731;50.720;6.912;2023-06-14T11:20:08;99963.16;;;28.01;23.46
17072;BME280;7731;50.720;6.912;2023-06-14T11:22:51;99955.34;;;28.63;23.29
17072;BME280;7731;50.720;6.912;2023-06-14T11:25:21;99958.66;;;28.92;23.91
17072;BME280;7731;50.720;6.912;2023-06-14T11:27:52;99943.22;;;28.95;23.65
17072;BME280;7731;50.720;6.912;2023-06-14T11:30:23;99948.38;;;28.55;24.04
17072;BME280;7731;50.720;6.912;2023-06-14T11:33:00;99950.53;;;29.07;23.47
17072;BME280;7731;50.720;6.912;2023-06-14T11:35:30;99951.59;;;29.59;22.81
17072;BME280;7731;50.720;6.912;2023-06-14T11:38:02;99939.19;;;29.60;22.31
17072;BME280;7731;50.720;6.912;2023-06-14T11:40:32;99947.28;;;29.71;22.34
17072;BME280;7731;50.720;6.912;2023-06-14T11:43:06;99953.13;;;28.66;22.94
17072;BME280;7731;50.720;6.912;2023-06-14T11:45:36;99950.06;;;28.70;23.82
17072;BME280;7731;50.720;6.912;2023-06-14T11:48:12;99952.38;;;28.38;24.34
17072;BME280;7731;50.720;6.912;2023-06-14T11:50:42;99950.59;;;28.51;23.99
17072;BME280;7731;50.720;6.912;2023-06-14T11:53:12;99948.44;;;28.68;23.47
17072;BME280;7731;50.720;6.912;2023-06-14T11:55:50;99955.00;;;28.99;23.44
17072;BME280;7731;50.720;6.912;2023-06-14T11:58:20;99948.44;;;28.68;23.65
17072;BME280;7731;50.720;6.912;2023-06-14T12:00:51;99950.38;;;28.53;24.42
17072;BME280;7731;50.720;6.912;2023-06-14T12:03:27;99945.69;;;29.17;23.02
17072;BME280;7731;50.720;6.912;2023-06-14T12:06:05;99929.00;;;29.36;23.01
17072;BME280;7731;50.720;6.912;2023-06-14T12:08:38;99936.91;;;29.90;22.60
17072;BME280;7731;50.720;6.912;2023-06-14T12:11:12;99944.06;;;29.69;22.88
17072;BME280;7731;50.720;6.912;2023-06-14T12:13:45;99946.03;;;28.87;23.81
17072;BME280;7731;50.720;6.912;2023-06-14T12:16:15;99952.94;;;28.26;24.13
17072;BME280;7731;50.720;6.912;2023-06-14T12:18:53;99946.94;;;27.76;25.07
17072;BME280;7731;50.720;6.912;2023-06-14T12:21:25;99953.56;;;28.28;24.50
17072;BME280;7731;50.720;6.912;2023-06-14T12:23:56;99952.56;;;28.36;24.72
17072;BME280;7731;50.720;6.912;2023-06-14T12:26:27;99958.91;;;28.42;24.68
17072;BME280;7731;50.720;6.912;2023-06-14T12:28:57;99945.28;;;29.80;22.87
17072;BME280;7731;50.720;6.912;2023-06-14T12:31:30;99947.75;;;29.28;23.13
17072;BME280;7731;50.720;6.912;2023-06-14T12:34:03;99949.81;;;27.81;25.73
17072;BME280;7731;50.720;6.912;2023-06-14T12:36:35;99954.66;;;27.06;26.81
17072;BME280;7731;50.720;6.912;2023-06-14T12:39:14;99951.16;;;27.42;26.23
17072;BME280;7731;50.720;6.912;2023-06-14T12:41:48;99952.81;;;27.71;25.67
17072;BME280;7731;50.720;6.912;2023-06-14T12:47:51;99950.53;;;27.96;25.32
17072;BME280;7731;50.720;6.912;2023-06-14T12:50:27;99963.56;;;27.70;25.05
17072;BME280;7731;50.720;6.912;2023-06-14T12:52:57;99955.16;;;27.16;25.05
17072;BME280;7731;50.720;6.912;2023-06-14T12:55:29;99961.91;;;27.40;24.11
17072;BME280;7731;50.720;6.912;2023-06-14T12:57:59;99951.44;;;27.82;23.87
17072;BME280;7731;50.720;6.912;2023-06-14T13:00:30;99957.78;;;27.88;24.41
17072;BME280;7731;50.720;6.912;2023-06-14T13:03:00;99950.97;;;27.43;24.92
17072;BME280;7731;50.720;6.912;2023-06-14T13:05:35;99959.53;;;27.31;25.58
17072;BME280;7731;50.720;6.912;2023-06-14T13:08:10;99957.94;;;27.51;25.57
17072;BME280;7731;50.720;6.912;2023-06-14T13:10:41;99955.22;;;27.23;25.74
17072;BME280;7731;50.720;6.912;2023-06-14T13:13:11;99955.41;;;27.21;25.89
17072;BME280;7731;50.720;6.912;2023-06-14T13:15:45;99956.81;;;26.96;26.60
17072;BME280;7731;50.720;6.912;2023-06-14T13:18:17;99963.91;;;27.60;26.40
17072;BME280;7731;50.720;6.912;2023-06-14T13:20:51;99965.72;;;26.43;27.13
17072;BME280;7731;50.720;6.912;2023-06-14T13:23:21;99958.59;;;27.32;26.27
17072;BME280;7731;50.720;6.912;2023-06-14T13:25:54;99963.88;;;27.88;25.51
17072;BME280;7731;50.720;6.912;2023-06-14T13:28:24;99972.34;;;26.39;26.70
17072;BME280;7731;50.720;6.912;2023-06-14T13:30:55;99975.03;;;25.25;28.41
17072;BME280;7731;50.720;6.912;2023-06-14T13:33:25;99975.50;;;25.90;28.28
17072;BME280;7731;50.720;6.912;2023-06-14T13:36:02;99966.59;;;26.80;27.48
17072;BME280;7731;50.720;6.912;2023-06-14T13:38:32;99971.75;;;26.73;27.39
17072;BME280;7731;50.720;6.912;2023-06-14T13:41:02;99972.03;;;26.64;27.46
17072;BME280;7731;50.720;6.912;2023-06-14T13:43:32;99977.69;;;26.31;27.85
17072;BME280;7731;50.720;6.912;2023-06-14T13:46:03;99978.06;;;26.58;27.15
17072;BME280;7731;50.720;6.912;2023-06-14T13:48:33;99983.22;;;26.66;27.48
17072;BME280;7731;50.720;6.912;2023-06-14T13:51:13;99980.59;;;26.66;27.45
17072;BME280;7731;50.720;6.912;2023-06-14T13:54:01;99981.91;;;26.40;27.64
17072;BME280;7731;50.720;6.912;2023-06-14T14:03:45;99973.25;;;26.98;27.21
17072;BME280;7731;50.720;6.912;2023-06-14T14:06:25;99969.84;;;26.82;27.37
17072;BME280;7731;50.720;6.912;2023-06-14T14:08:55;99968.88;;;27.05;26.98
17072;BME280;7731;50.720;6.912;2023-06-14T14:11:26;99968.88;;;27.26;26.96
17072;BME280;7731;50.720;6.912;2023-06-14T14:14:00;99974.97;;;26.69;27.44
17072;BME280;7731;50.720;6.912;2023-06-14T14:16:32;99970.91;;;26.07;28.81
17072;BME280;7731;50.720;6.912;2023-06-14T14:19:07;99969.91;;;26.52;28.71
17072;BME280;7731;50.720;6.912;2023-06-14T14:21:43;99970.81;;;26.15;28.21
17072;BME280;7731;50.720;6.912;2023-06-14T14:24:16;99968.41;;;26.65;27.57
17072;BME280;7731;50.720;6.912;2023-06-14T14:26:49;99968.63;;;26.48;27.67
17072;BME280;7731;50.720;6.912;2023-06-14T14:29:24;99962.69;;;26.98;27.23
17072;BME280;7731;50.720;6.912;2023-06-14T14:31:56;99979.28;;;26.91;27.95
17072;BME280;7731;50.720;6.912;2023-06-14T14:34:26;99977.63;;;26.90;27.42
17072;BME280;7731;50.720;6.912;2023-06-14T14:36:59;99986.59;;;26.00;27.31
17072;BME280;7731;50.720;6.912;2023-06-14T14:39:30;99975.97;;;26.53;26.77
17072;BME280;7731;50.720;6.912;2023-06-14T14:42:00;99968.81;;;26.47;27.25
17072;BME280;7731;50.720;6.912;2023-06-14T14:44:30;99970.44;;;26.99;27.77
17072;BME280;7731;50.720;6.912;2023-06-14T14:47:01;99976.88;;;27.18;25.79
17072;BME280;7731;50.720;6.912;2023-06-14T14:49:32;99978.34;;;26.99;26.68
17072;BME280;7731;50.720;6.912;2023-06-14T14:52:08;99982.66;;;26.85;26.28
17072;BME280;7731;50.720;6.912;2023-06-14T14:54:50;99988.88;;;26.33;27.62
17072;BME280;7731;50.720;6.912;2023-06-14T14:57:21;99978.19;;;25.81;28.30
17072;BME280;7731;50.720;6.912;2023-06-14T14:59:52;99979.63;;;26.22;27.99